sensor_id;sensor_type;location;lat;lon;timestamp;P1;durP1;ratioP1;P2;durP2;ratioP2
37483;SDS011;23337;52.212;9.926;2023-03-26T00:01:18;4.40;;;3.13;;
37483;SDS011;23337;52.212;9.926;2023-03-26T00:03:45;4.33;;;3.53;;
37483;SDS011;23337;52.212;9.926;2023-03-26T00:06:17;7.97;;;2.93;;
37483;SDS011;23337;52.212;9.926;2023-03-26T00:08:44;3.17;;;2.77;;
37483;SDS011;23337;52.212;9.926;2023-03-26T00:11:11;5.40;;;3.07;;
37483;SDS011;23337;52.212;9.926;2023-03-26T00:13:37;6.30;;;3.47;;
37483;SDS011;23337;52.212;9.926;2023-03-26T00:16:05;5.63;;;3.17;;
37483;SDS011;23337;52.212;9.926;2023-03-26T00:18:31;5.00;;;3.40;;
37483;SDS011;23337;52.212;9.926;2023-03-26T00:21:00;5.60;;;3.40;;
37483;SDS011;23337;52.212;9.926;2023-03-26T00:23:26;6.97;;;3.53;;
37483;SDS011;23337;52.212;9.926;2023-03-26T00:25:53;5.83;;;4.00;;
37483;SDS011;23337;52.212;9.926;2023-03-26T00:28:20;7.47;;;3.00;;
37483;SDS011;23337;52.212;9.926;2023-03-26T00:30:49;7.50;;;3.80;;
37483;SDS011;23337;52.212;9.926;2023-03-26T00:33:15;5.93;;;3.50;;
37483;SDS011;23337;52.212;9.926;2023-03-26T00:35:42;5.77;;;3.13;;
37483;SDS011;23337;52.212;9.926;2023-03-26T00:38:10;8.37;;;4.00;;
37483;SDS011;23337;52.212;9.926;2023-03-26T00:40:36;4.47;;;3.20;;
37483;SDS011;23337;52.212;9.926;2023-03-26T00:43:02;4.03;;;3.10;;
37483;SDS011;23337;52.212;9.926;2023-03-26T00:45:42;5.10;;;3.30;;
37483;SDS011;23337;52.212;9.926;2023-03-26T00:48:08;7.50;;;3.10;;
37483;SDS011;23337;52.212;9.926;2023-03-26T00:50:34;6.70;;;3.13;;
37483;SDS011;23337;52.212;9.926;2023-03-26T00:53:00;9.70;;;2.57;;
37483;SDS011;23337;52.212;9.926;2023-03-26T00:55:27;7.90;;;3.33;;
37483;SDS011;23337;52.212;9.926;2023-03-26T00:57:52;4.43;;;3.00;;
37483;SDS011;23337;52.212;9.926;2023-03-26T01:00:19;4.80;;;3.27;;
37483;SDS011;23337;52.212;9.926;2023-03-26T01:02:52;3.47;;;3.10;;
37483;SDS011;23337;52.212;9.926;2023-03-26T01:08:46;6.93;;;2.87;;
37483;SDS011;23337;52.212;9.926;2023-03-26T01:10:47;5.10;;;3.23;;
37483;SDS011;23337;52.212;9.926;2023-03-26T01:13:15;5.50;;;2.60;;
37483;SDS011;23337;52.212;9.926;2023-03-26T01:15:42;4.03;;;2.80;;
37483;SDS011;23337;52.212;9.926;2023-03-26T01:18:08;8.13;;;3.20;;
37483;SDS011;23337;52.212;9.926;2023-03-26T01:20:37;4.83;;;3.20;;
37483;SDS011;23337;52.212;9.926;2023-03-26T01:23:11;6.03;;;3.10;;
37483;SDS011;23337;52.212;9.926;2023-03-26T01:25:39;5.80;;;3.07;;
37483;SDS011;23337;52.212;9.926;2023-03-26T01:28:07;7.50;;;3.20;;
37483;SDS011;23337;52.212;9.926;2023-03-26T01:30:41;4.43;;;2.70;;
37483;SDS011;23337;52.212;9.926;2023-03-26T01:36:27;5.47;;;2.40;;
37483;SDS011;23337;52.212;9.926;2023-03-26T01:38:58;6.50;;;2.23;;
37483;SDS011;23337;52.212;9.926;2023-03-26T01:46:23;4.33;;;1.97;;
37483;SDS011;23337;52.212;9.926;2023-03-26T01:48:50;4.53;;;2.00;;
37483;SDS011;23337;52.212;9.926;2023-03-26T01:51:30;2.50;;;1.73;;
37483;SDS011;23337;52.212;9.926;2023-03-26T01:53:56;5.90;;;2.07;;
37483;SDS011;23337;52.212;9.926;2023-03-26T01:56:45;3.97;;;2.00;;
37483;SDS011;23337;52.212;9.926;2023-03-26T02:01:50;6.73;;;3.00;;
37483;SDS011;23337;52.212;9.926;2023-03-26T02:04:53;3.83;;;1.83;;
37483;SDS011;23337;52.212;9.926;2023-03-26T02:07:21;4.53;;;1.70;;
37483;SDS011;23337;52.212;9.926;2023-03-26T02:09:53;3.60;;;1.40;;
37483;SDS011;23337;52.212;9.926;2023-03-26T02:12:21;3.67;;;1.57;;
37483;SDS011;23337;52.212;9.926;2023-03-26T02:14:47;4.63;;;1.60;;
37483;SDS011;23337;52.212;9.926;2023-03-26T02:17:13;2.43;;;1.13;;
37483;SDS011;23337;52.212;9.926;2023-03-26T02:19:40;4.57;;;1.30;;
37483;SDS011;23337;52.212;9.926;2023-03-26T02:22:07;5.03;;;1.20;;
37483;SDS011;23337;52.212;9.926;2023-03-26T02:24:36;3.00;;;1.33;;
37483;SDS011;23337;52.212;9.926;2023-03-26T02:27:02;2.40;;;1.00;;
37483;SDS011;23337;52.212;9.926;2023-03-26T02:29:28;3.80;;;0.77;;
37483;SDS011;23337;52.212;9.926;2023-03-26T02:31:54;2.03;;;1.27;;
37483;SDS011;23337;52.212;9.926;2023-03-26T02:34:20;2.93;;;1.00;;
37483;SDS011;23337;52.212;9.926;2023-03-26T02:36:46;8.23;;;1.57;;
37483;SDS011;23337;52.212;9.926;2023-03-26T02:39:12;4.80;;;1.30;;
37483;SDS011;23337;52.212;9.926;2023-03-26T02:41:38;4.83;;;1.87;;
37483;SDS011;23337;52.212;9.926;2023-03-26T02:44:04;4.07;;;1.83;;
37483;SDS011;23337;52.212;9.926;2023-03-26T02:46:31;2.30;;;1.73;;
37483;SDS011;23337;52.212;9.926;2023-03-26T02:48:57;3.43;;;1.60;;
37483;SDS011;23337;52.212;9.926;2023-03-26T02:51:23;3.67;;;1.57;;
37483;SDS011;23337;52.212;9.926;2023-03-26T02:53:49;4.33;;;1.90;;
37483;SDS011;23337;52.212;9.926;2023-03-26T02:56:17;3.40;;;1.50;;
37483;SDS011;23337;52.212;9.926;2023-03-26T02:58:43;4.77;;;1.90;;
37483;SDS011;23337;52.212;9.926;2023-03-26T03:01:10;3.63;;;1.73;;
37483;SDS011;23337;52.212;9.926;2023-03-26T03:03:37;5.60;;;1.90;;
37483;SDS011;23337;52.212;9.926;2023-03-26T03:06:03;9.90;;;2.63;;
37483;SDS011;23337;52.212;9.926;2023-03-26T03:08:29;4.13;;;2.00;;
37483;SDS011;23337;52.212;9.926;2023-03-26T03:10:55;7.70;;;2.00;;
37483;SDS011;23337;52.212;9.926;2023-03-26T03:13:22;3.60;;;2.03;;
37483;SDS011;23337;52.212;9.926;2023-03-26T03:15:48;4.50;;;2.50;;
37483;SDS011;23337;52.212;9.926;2023-03-26T03:18:14;6.50;;;2.43;;
37483;SDS011;23337;52.212;9.926;2023-03-26T03:20:40;3.27;;;2.30;;
37483;SDS011;23337;52.212;9.926;2023-03-26T03:23:06;5.67;;;2.20;;
37483;SDS011;23337;52.212;9.926;2023-03-26T03:25:32;4.03;;;2.57;;
37483;SDS011;23337;52.212;9.926;2023-03-26T03:27:58;3.90;;;2.33;;
37483;SDS011;23337;52.212;9.926;2023-03-26T03:30:24;3.77;;;2.20;;
37483;SDS011;23337;52.212;9.926;2023-03-26T03:32:50;5.50;;;2.13;;
37483;SDS011;23337;52.212;9.926;2023-03-26T03:35:16;6.23;;;2.73;;
37483;SDS011;23337;52.212;9.926;2023-03-26T03:37:41;6.53;;;2.20;;
37483;SDS011;23337;52.212;9.926;2023-03-26T03:40:08;4.33;;;2.20;;
37483;SDS011;23337;52.212;9.926;2023-03-26T03:42:35;3.63;;;2.63;;
37483;SDS011;23337;52.212;9.926;2023-03-26T03:45:01;4.20;;;2.07;;
37483;SDS011;23337;52.212;9.926;2023-03-26T03:47:27;3.03;;;2.00;;
37483;SDS011;23337;52.212;9.926;2023-03-26T03:49:53;5.30;;;2.40;;
37483;SDS011;23337;52.212;9.926;2023-03-26T03:52:20;7.17;;;2.00;;
37483;SDS011;23337;52.212;9.926;2023-03-26T03:54:46;5.93;;;2.20;;
37483;SDS011;23337;52.212;9.926;2023-03-26T03:57:13;6.63;;;2.63;;
37483;SDS011;23337;52.212;9.926;2023-03-26T03:59:39;6.07;;;1.97;;
37483;SDS011;23337;52.212;9.926;2023-03-26T04:02:05;5.97;;;1.90;;
37483;SDS011;23337;52.212;9.926;2023-03-26T04:04:31;4.03;;;2.00;;
37483;SDS011;23337;52.212;9.926;2023-03-26T04:06:58;7.20;;;1.90;;
37483;SDS011;23337;52.212;9.926;2023-03-26T04:09:24;6.07;;;2.63;;
37483;SDS011;23337;52.212;9.926;2023-03-26T04:11:50;6.83;;;2.23;;
37483;SDS011;23337;52.212;9.926;2023-03-26T04:14:16;3.07;;;1.80;;
37483;SDS011;23337;52.212;9.926;2023-03-26T04:16:42;2.87;;;1.70;;
37483;SDS011;23337;52.212;9.926;2023-03-26T04:19:08;5.27;;;1.90;;
37483;SDS011;23337;52.212;9.926;2023-03-26T04:21:34;4.43;;;1.93;;
37483;SDS011;23337;52.212;9.926;2023-03-26T04:24:01;7.83;;;2.30;;
37483;SDS011;23337;52.212;9.926;2023-03-26T04:26:27;4.43;;;1.97;;
37483;SDS011;23337;52.212;9.926;2023-03-26T04:28:55;6.87;;;2.70;;
37483;SDS011;23337;52.212;9.926;2023-03-26T04:31:24;3.30;;;1.63;;
37483;SDS011;23337;52.212;9.926;2023-03-26T04:33:53;7.97;;;2.63;;
37483;SDS011;23337;52.212;9.926;2023-03-26T04:36:26;6.83;;;2.73;;
37483;SDS011;23337;52.212;9.926;2023-03-26T04:38:52;6.37;;;2.03;;
37483;SDS011;23337;52.212;9.926;2023-03-26T04:41:18;4.57;;;2.43;;
37483;SDS011;23337;52.212;9.926;2023-03-26T04:43:46;6.70;;;2.47;;
37483;SDS011;23337;52.212;9.926;2023-03-26T04:46:17;9.53;;;3.27;;
37483;SDS011;23337;52.212;9.926;2023-03-26T04:48:45;5.47;;;2.53;;
37483;SDS011;23337;52.212;9.926;2023-03-26T04:51:12;5.30;;;3.27;;
37483;SDS011;23337;52.212;9.926;2023-03-26T04:53:42;5.97;;;3.53;;
37483;SDS011;23337;52.212;9.926;2023-03-26T04:56:20;9.80;;;4.07;;
37483;SDS011;23337;52.212;9.926;2023-03-26T04:58:51;10.40;;;3.50;;
37483;SDS011;23337;52.212;9.926;2023-03-26T05:01:20;9.17;;;3.67;;
37483;SDS011;23337;52.212;9.926;2023-03-26T05:03:48;9.43;;;4.60;;
37483;SDS011;23337;52.212;9.926;2023-03-26T05:06:14;7.57;;;3.50;;
37483;SDS011;23337;52.212;9.926;2023-03-26T05:08:40;9.30;;;3.57;;
37483;SDS011;23337;52.212;9.926;2023-03-26T05:11:08;8.23;;;3.53;;
37483;SDS011;23337;52.212;9.926;2023-03-26T05:13:35;8.60;;;3.77;;
37483;SDS011;23337;52.212;9.926;2023-03-26T05:16:01;7.93;;;3.47;;
37483;SDS011;23337;52.212;9.926;2023-03-26T05:18:27;7.93;;;3.50;;
37483;SDS011;23337;52.212;9.926;2023-03-26T05:20:53;7.77;;;4.33;;
37483;SDS011;23337;52.212;9.926;2023-03-26T05:23:21;6.57;;;3.33;;
37483;SDS011;23337;52.212;9.926;2023-03-26T05:25:47;8.70;;;3.13;;
37483;SDS011;23337;52.212;9.926;2023-03-26T05:28:12;8.57;;;3.40;;
37483;SDS011;23337;52.212;9.926;2023-03-26T05:30:38;9.30;;;3.50;;
37483;SDS011;23337;52.212;9.926;2023-03-26T05:33:05;9.83;;;4.30;;
37483;SDS011;23337;52.212;9.926;2023-03-26T05:35:31;8.40;;;3.67;;
37483;SDS011;23337;52.212;9.926;2023-03-26T05:37:56;8.53;;;3.23;;
37483;SDS011;23337;52.212;9.926;2023-03-26T05:40:22;8.40;;;4.07;;
37483;SDS011;23337;52.212;9.926;2023-03-26T05:42:48;7.77;;;3.77;;
37483;SDS011;23337;52.212;9.926;2023-03-26T05:45:15;8.07;;;3.43;;
37483;SDS011;23337;52.212;9.926;2023-03-26T05:47:41;11.00;;;3.80;;
37483;SDS011;23337;52.212;9.926;2023-03-26T05:50:07;6.37;;;3.43;;
37483;SDS011;23337;52.212;9.926;2023-03-26T05:52:34;8.73;;;3.57;;
37483;SDS011;23337;52.212;9.926;2023-03-26T05:55:00;9.83;;;4.30;;
37483;SDS011;23337;52.212;9.926;2023-03-26T05:57:28;3.87;;;3.20;;
37483;SDS011;23337;52.212;9.926;2023-03-26T05:59:54;8.23;;;3.77;;
37483;SDS011;23337;52.212;9.926;2023-03-26T06:02:20;6.43;;;3.30;;
37483;SDS011;23337;52.212;9.926;2023-03-26T06:04:47;8.23;;;3.70;;
37483;SDS011;23337;52.212;9.926;2023-03-26T06:07:13;7.43;;;3.80;;
37483;SDS011;23337;52.212;9.926;2023-03-26T06:09:40;8.30;;;4.10;;
37483;SDS011;23337;52.212;9.926;2023-03-26T06:12:07;7.43;;;3.27;;
37483;SDS011;23337;52.212;9.926;2023-03-26T06:14:33;7.93;;;3.67;;
37483;SDS011;23337;52.212;9.926;2023-03-26T06:16:59;9.70;;;4.33;;
37483;SDS011;23337;52.212;9.926;2023-03-26T06:19:25;5.23;;;3.67;;
37483;SDS011;23337;52.212;9.926;2023-03-26T06:21:51;6.83;;;3.60;;
37483;SDS011;23337;52.212;9.926;2023-03-26T06:24:17;8.47;;;3.53;;
37483;SDS011;23337;52.212;9.926;2023-03-26T06:26:44;13.07;;;4.87;;
37483;SDS011;23337;52.212;9.926;2023-03-26T06:29:11;7.33;;;4.20;;
37483;SDS011;23337;52.212;9.926;2023-03-26T06:31:37;7.73;;;4.27;;
37483;SDS011;23337;52.212;9.926;2023-03-26T06:34:03;10.40;;;3.93;;
37483;SDS011;23337;52.212;9.926;2023-03-26T06:36:29;7.50;;;3.90;;
37483;SDS011;23337;52.212;9.926;2023-03-26T06:38:55;7.17;;;3.80;;
37483;SDS011;23337;52.212;9.926;2023-03-26T06:41:21;8.47;;;4.07;;
37483;SDS011;23337;52.212;9.926;2023-03-26T06:43:47;5.87;;;4.07;;
37483;SDS011;23337;52.212;9.926;2023-03-26T06:46:13;5.20;;;3.67;;
37483;SDS011;23337;52.212;9.926;2023-03-26T06:48:39;7.33;;;3.43;;
37483;SDS011;23337;52.212;9.926;2023-03-26T06:51:06;10.00;;;3.90;;
37483;SDS011;23337;52.212;9.926;2023-03-26T06:53:32;6.63;;;3.13;;
37483;SDS011;23337;52.212;9.926;2023-03-26T06:55:58;7.43;;;3.10;;
37483;SDS011;23337;52.212;9.926;2023-03-26T06:58:24;7.47;;;3.23;;
37483;SDS011;23337;52.212;9.926;2023-03-26T07:00:52;6.50;;;3.03;;
37483;SDS011;23337;52.212;9.926;2023-03-26T07:03:19;7.67;;;3.07;;
37483;SDS011;23337;52.212;9.926;2023-03-26T07:05:45;8.37;;;2.80;;
37483;SDS011;23337;52.212;9.926;2023-03-26T07:08:11;6.07;;;2.20;;
37483;SDS011;23337;52.212;9.926;2023-03-26T07:10:37;7.53;;;2.40;;
37483;SDS011;23337;52.212;9.926;2023-03-26T07:13:03;5.50;;;2.07;;
37483;SDS011;23337;52.212;9.926;2023-03-26T07:15:29;6.13;;;2.30;;
37483;SDS011;23337;52.212;9.926;2023-03-26T07:17:55;4.53;;;1.87;;
37483;SDS011;23337;52.212;9.926;2023-03-26T07:20:21;5.10;;;2.20;;
37483;SDS011;23337;52.212;9.926;2023-03-26T07:22:47;7.00;;;2.00;;
37483;SDS011;23337;52.212;9.926;2023-03-26T07:25:13;4.43;;;1.70;;
37483;SDS011;23337;52.212;9.926;2023-03-26T07:33:00;5.50;;;2.17;;
37483;SDS011;23337;52.212;9.926;2023-03-26T07:35:31;5.70;;;2.20;;
37483;SDS011;23337;52.212;9.926;2023-03-26T07:40:35;7.03;;;2.17;;
37483;SDS011;23337;52.212;9.926;2023-03-26T07:43:13;4.30;;;1.87;;
37483;SDS011;23337;52.212;9.926;2023-03-26T07:45:41;5.50;;;1.83;;
37483;SDS011;23337;52.212;9.926;2023-03-26T07:48:18;5.40;;;1.77;;
37483;SDS011;23337;52.212;9.926;2023-03-26T07:50:45;5.20;;;1.83;;
37483;SDS011;23337;52.212;9.926;2023-03-26T07:53:11;7.17;;;2.33;;
37483;SDS011;23337;52.212;9.926;2023-03-26T07:55:39;6.40;;;3.20;;
37483;SDS011;23337;52.212;9.926;2023-03-26T08:00:55;5.50;;;1.73;;
37483;SDS011;23337;52.212;9.926;2023-03-26T08:06:11;4.17;;;1.60;;
37483;SDS011;23337;52.212;9.926;2023-03-26T08:08:44;5.13;;;1.97;;
37483;SDS011;23337;52.212;9.926;2023-03-26T08:19:26;5.50;;;1.87;;
37483;SDS011;23337;52.212;9.926;2023-03-26T08:22:01;8.27;;;2.17;;
37483;SDS011;23337;52.212;9.926;2023-03-26T08:24:34;5.00;;;1.43;;
37483;SDS011;23337;52.212;9.926;2023-03-26T08:29:48;5.73;;;1.80;;
37483;SDS011;23337;52.212;9.926;2023-03-26T08:32:16;4.30;;;1.80;;
37483;SDS011;23337;52.212;9.926;2023-03-26T08:34:43;5.03;;;1.90;;
37483;SDS011;23337;52.212;9.926;2023-03-26T08:37:09;6.67;;;2.40;;
37483;SDS011;23337;52.212;9.926;2023-03-26T08:39:35;7.37;;;1.73;;
37483;SDS011;23337;52.212;9.926;2023-03-26T08:44:46;3.83;;;1.10;;
37483;SDS011;23337;52.212;9.926;2023-03-26T08:47:21;5.07;;;1.13;;
37483;SDS011;23337;52.212;9.926;2023-03-26T08:58:07;3.97;;;1.80;;
37483;SDS011;23337;52.212;9.926;2023-03-26T09:05:42;4.83;;;1.90;;
37483;SDS011;23337;52.212;9.926;2023-03-26T09:09:11;5.77;;;1.33;;
37483;SDS011;23337;52.212;9.926;2023-03-26T09:26:17;4.57;;;2.50;;
37483;SDS011;23337;52.212;9.926;2023-03-26T09:36:31;3.73;;;2.13;;
37483;SDS011;23337;52.212;9.926;2023-03-26T09:39:01;8.57;;;1.90;;
37483;SDS011;23337;52.212;9.926;2023-03-26T09:49:08;4.73;;;2.47;;
37483;SDS011;23337;52.212;9.926;2023-03-26T09:54:28;4.33;;;1.87;;
37483;SDS011;23337;52.212;9.926;2023-03-26T10:02:41;5.43;;;2.60;;
37483;SDS011;23337;52.212;9.926;2023-03-26T10:05:19;3.83;;;1.83;;
37483;SDS011;23337;52.212;9.926;2023-03-26T10:10:22;12.70;;;2.63;;
37483;SDS011;23337;52.212;9.926;2023-03-26T10:13:37;5.33;;;2.50;;
37483;SDS011;23337;52.212;9.926;2023-03-26T10:21:16;5.67;;;2.40;;
37483;SDS011;23337;52.212;9.926;2023-03-26T10:28:56;5.03;;;2.77;;
37483;SDS011;23337;52.212;9.926;2023-03-26T10:37:13;4.30;;;2.50;;
37483;SDS011;23337;52.212;9.926;2023-03-26T10:45:01;4.77;;;2.03;;
37483;SDS011;23337;52.212;9.926;2023-03-26T10:55:17;4.97;;;2.07;;
37483;SDS011;23337;52.212;9.926;2023-03-26T11:00:21;3.50;;;2.27;;
37483;SDS011;23337;52.212;9.926;2023-03-26T11:05:39;4.93;;;2.07;;
37483;SDS011;23337;52.212;9.926;2023-03-26T11:08:11;6.57;;;2.17;;
37483;SDS011;23337;52.212;9.926;2023-03-26T11:10:41;3.80;;;2.07;;
37483;SDS011;23337;52.212;9.926;2023-03-26T11:15:59;4.13;;;2.23;;
37483;SDS011;23337;52.212;9.926;2023-03-26T11:18:42;5.47;;;2.13;;
37483;SDS011;23337;52.212;9.926;2023-03-26T11:23:52;4.90;;;2.50;;
37483;SDS011;23337;52.212;9.926;2023-03-26T11:31:44;7.20;;;2.30;;
37483;SDS011;23337;52.212;9.926;2023-03-26T11:34:14;5.07;;;2.07;;
37483;SDS011;23337;52.212;9.926;2023-03-26T11:36:42;5.83;;;2.10;;
37483;SDS011;23337;52.212;9.926;2023-03-26T11:39:11;4.97;;;2.30;;
37483;SDS011;23337;52.212;9.926;2023-03-26T11:41:38;7.23;;;2.47;;
37483;SDS011;23337;52.212;9.926;2023-03-26T11:44:17;4.77;;;2.37;;
37483;SDS011;23337;52.212;9.926;2023-03-26T11:46:45;3.13;;;1.83;;
37483;SDS011;23337;52.212;9.926;2023-03-26T11:49:13;5.30;;;2.67;;
37483;SDS011;23337;52.212;9.926;2023-03-26T11:51:41;5.57;;;2.30;;
37483;SDS011;23337;52.212;9.926;2023-03-26T11:54:10;7.10;;;2.33;;
37483;SDS011;23337;52.212;9.926;2023-03-26T12:04:12;6.17;;;2.57;;
37483;SDS011;23337;52.212;9.926;2023-03-26T12:06:38;5.67;;;2.97;;
37483;SDS011;23337;52.212;9.926;2023-03-26T12:09:18;5.47;;;2.33;;
37483;SDS011;23337;52.212;9.926;2023-03-26T12:11:44;6.33;;;2.77;;
37483;SDS011;23337;52.212;9.926;2023-03-26T12:14:16;4.47;;;3.10;;
37483;SDS011;23337;52.212;9.926;2023-03-26T12:16:55;6.20;;;2.77;;
37483;SDS011;23337;52.212;9.926;2023-03-26T12:19:22;5.07;;;3.00;;
37483;SDS011;23337;52.212;9.926;2023-03-26T12:21:49;5.73;;;3.10;;
37483;SDS011;23337;52.212;9.926;2023-03-26T12:26:55;6.00;;;2.83;;
37483;SDS011;23337;52.212;9.926;2023-03-26T12:29:21;4.50;;;2.77;;
37483;SDS011;23337;52.212;9.926;2023-03-26T12:31:49;9.03;;;3.13;;
37483;SDS011;23337;52.212;9.926;2023-03-26T12:34:16;4.73;;;3.03;;
37483;SDS011;23337;52.212;9.926;2023-03-26T12:36:50;5.97;;;3.27;;
37483;SDS011;23337;52.212;9.926;2023-03-26T12:39:33;5.63;;;2.90;;
37483;SDS011;23337;52.212;9.926;2023-03-26T12:42:01;7.33;;;3.50;;
37483;SDS011;23337;52.212;9.926;2023-03-26T12:44:33;5.07;;;3.10;;
37483;SDS011;23337;52.212;9.926;2023-03-26T12:49:35;5.93;;;4.10;;
37483;SDS011;23337;52.212;9.926;2023-03-26T12:52:07;7.70;;;3.60;;
37483;SDS011;23337;52.212;9.926;2023-03-26T12:54:43;5.93;;;3.87;;
37483;SDS011;23337;52.212;9.926;2023-03-26T12:57:32;6.53;;;2.70;;
37483;SDS011;23337;52.212;9.926;2023-03-26T13:00:26;6.10;;;2.53;;
37483;SDS011;23337;52.212;9.926;2023-03-26T13:08:23;5.00;;;2.90;;
37483;SDS011;23337;52.212;9.926;2023-03-26T13:11:02;5.03;;;2.97;;
37483;SDS011;23337;52.212;9.926;2023-03-26T13:15:59;7.53;;;3.20;;
37483;SDS011;23337;52.212;9.926;2023-03-26T13:21:10;4.53;;;2.70;;
37483;SDS011;23337;52.212;9.926;2023-03-26T13:23:45;6.83;;;3.07;;
37483;SDS011;23337;52.212;9.926;2023-03-26T13:26:34;5.33;;;2.60;;
37483;SDS011;23337;52.212;9.926;2023-03-26T13:34:24;3.50;;;2.53;;
37483;SDS011;23337;52.212;9.926;2023-03-26T13:44:20;6.90;;;3.07;;
37483;SDS011;23337;52.212;9.926;2023-03-26T13:46:52;6.03;;;3.53;;
37483;SDS011;23337;52.212;9.926;2023-03-26T13:49:24;6.03;;;3.00;;
37483;SDS011;23337;52.212;9.926;2023-03-26T13:56:48;5.87;;;2.93;;
37483;SDS011;23337;52.212;9.926;2023-03-26T14:02:09;5.83;;;3.00;;
37483;SDS011;23337;52.212;9.926;2023-03-26T14:04:38;4.60;;;2.70;;
37483;SDS011;23337;52.212;9.926;2023-03-26T14:07:07;2.43;;;1.63;;
37483;SDS011;23337;52.212;9.926;2023-03-26T14:09:39;2.87;;;1.47;;
37483;SDS011;23337;52.212;9.926;2023-03-26T14:12:20;1.97;;;1.50;;
37483;SDS011;23337;52.212;9.926;2023-03-26T14:15:03;1.93;;;1.57;;
37483;SDS011;23337;52.212;9.926;2023-03-26T14:17:36;2.33;;;1.40;;
37483;SDS011;23337;52.212;9.926;2023-03-26T14:25:19;1.70;;;1.60;;
37483;SDS011;23337;52.212;9.926;2023-03-26T14:27:56;2.20;;;1.30;;
37483;SDS011;23337;52.212;9.926;2023-03-26T14:30:40;3.77;;;1.77;;
37483;SDS011;23337;52.212;9.926;2023-03-26T14:35:58;2.20;;;1.30;;
37483;SDS011;23337;52.212;9.926;2023-03-26T14:41:02;2.40;;;1.43;;
37483;SDS011;23337;52.212;9.926;2023-03-26T14:51:32;1.13;;;0.97;;
37483;SDS011;23337;52.212;9.926;2023-03-26T14:54:04;1.40;;;1.30;;
37483;SDS011;23337;52.212;9.926;2023-03-26T14:56:35;1.77;;;1.20;;
37483;SDS011;23337;52.212;9.926;2023-03-26T15:17:31;1.40;;;1.00;;
37483;SDS011;23337;52.212;9.926;2023-03-26T15:22:43;2.27;;;1.30;;
37483;SDS011;23337;52.212;9.926;2023-03-26T15:30:50;1.93;;;0.80;;
37483;SDS011;23337;52.212;9.926;2023-03-26T15:46:50;1.80;;;1.00;;
37483;SDS011;23337;52.212;9.926;2023-03-26T15:50:05;3.40;;;0.90;;
37483;SDS011;23337;52.212;9.926;2023-03-26T15:52:17;0.97;;;0.73;;
37483;SDS011;23337;52.212;9.926;2023-03-26T15:55:08;1.70;;;0.97;;
37483;SDS011;23337;52.212;9.926;2023-03-26T15:57:47;1.27;;;0.80;;
37483;SDS011;23337;52.212;9.926;2023-03-26T16:00:27;1.93;;;1.10;;
37483;SDS011;23337;52.212;9.926;2023-03-26T16:11:00;1.87;;;1.20;;
37483;SDS011;23337;52.212;9.926;2023-03-26T16:13:33;3.00;;;2.17;;
37483;SDS011;23337;52.212;9.926;2023-03-26T16:18:32;5.00;;;3.07;;
37483;SDS011;23337;52.212;9.926;2023-03-26T16:21:03;3.67;;;2.33;;
37483;SDS011;23337;52.212;9.926;2023-03-26T16:26:18;5.50;;;2.50;;
37483;SDS011;23337;52.212;9.926;2023-03-26T16:41:29;5.87;;;2.03;;
37483;SDS011;23337;52.212;9.926;2023-03-26T16:49:30;5.13;;;1.83;;
37483;SDS011;23337;52.212;9.926;2023-03-26T17:07:40;6.53;;;2.40;;
37483;SDS011;23337;52.212;9.926;2023-03-26T17:10:15;4.67;;;2.00;;
37483;SDS011;23337;52.212;9.926;2023-03-26T17:13:45;5.37;;;1.87;;
37483;SDS011;23337;52.212;9.926;2023-03-26T17:15:45;6.43;;;2.13;;
37483;SDS011;23337;52.212;9.926;2023-03-26T17:18:34;4.80;;;2.17;;
37483;SDS011;23337;52.212;9.926;2023-03-26T17:21:44;8.23;;;2.50;;
37483;SDS011;23337;52.212;9.926;2023-03-26T17:31:51;5.20;;;1.80;;
37483;SDS011;23337;52.212;9.926;2023-03-26T17:37:04;6.47;;;2.13;;
37483;SDS011;23337;52.212;9.926;2023-03-26T17:47:03;10.20;;;2.33;;
37483;SDS011;23337;52.212;9.926;2023-03-26T17:49:30;7.30;;;2.73;;
37483;SDS011;23337;52.212;9.926;2023-03-26T17:54:31;5.80;;;1.80;;
37483;SDS011;23337;52.212;9.926;2023-03-26T17:56:59;8.75;;;2.25;;
37483;SDS011;23337;52.212;9.926;2023-03-26T17:59:26;9.93;;;1.90;;
37483;SDS011;23337;52.212;9.926;2023-03-26T18:01:59;12.00;;;2.67;;
37483;SDS011;23337;52.212;9.926;2023-03-26T18:04:32;8.33;;;1.93;;
37483;SDS011;23337;52.212;9.926;2023-03-26T18:07:09;7.30;;;2.70;;
37483;SDS011;23337;52.212;9.926;2023-03-26T18:12:14;7.07;;;2.20;;
37483;SDS011;23337;52.212;9.926;2023-03-26T18:17:30;6.63;;;2.03;;
37483;SDS011;23337;52.212;9.926;2023-03-26T18:20:01;9.10;;;2.87;;
37483;SDS011;23337;52.212;9.926;2023-03-26T18:22:31;8.90;;;2.63;;
37483;SDS011;23337;52.212;9.926;2023-03-26T18:24:58;9.20;;;2.13;;
37483;SDS011;23337;52.212;9.926;2023-03-26T18:27:24;7.63;;;2.00;;
37483;SDS011;23337;52.212;9.926;2023-03-26T18:32:24;8.30;;;2.37;;
37483;SDS011;23337;52.212;9.926;2023-03-26T18:34:58;12.77;;;2.80;;
37483;SDS011;23337;52.212;9.926;2023-03-26T18:37:28;13.67;;;3.63;;
37483;SDS011;23337;52.212;9.926;2023-03-26T18:42:24;8.30;;;2.23;;
37483;SDS011;23337;52.212;9.926;2023-03-26T18:44:51;13.60;;;3.07;;
37483;SDS011;23337;52.212;9.926;2023-03-26T18:47:18;13.13;;;2.43;;
37483;SDS011;23337;52.212;9.926;2023-03-26T18:49:45;12.63;;;3.80;;
37483;SDS011;23337;52.212;9.926;2023-03-26T18:52:12;7.30;;;1.97;;
37483;SDS011;23337;52.212;9.926;2023-03-26T18:54:39;5.13;;;1.70;;
37483;SDS011;23337;52.212;9.926;2023-03-26T18:57:09;6.50;;;1.90;;
37483;SDS011;23337;52.212;9.926;2023-03-26T18:59:36;14.20;;;2.03;;
37483;SDS011;23337;52.212;9.926;2023-03-26T19:02:10;9.47;;;2.33;;
37483;SDS011;23337;52.212;9.926;2023-03-26T19:04:37;9.17;;;2.20;;
37483;SDS011;23337;52.212;9.926;2023-03-26T19:07:05;7.50;;;1.73;;
37483;SDS011;23337;52.212;9.926;2023-03-26T19:09:33;8.53;;;2.03;;
37483;SDS011;23337;52.212;9.926;2023-03-26T19:12:42;7.37;;;1.67;;
37483;SDS011;23337;52.212;9.926;2023-03-26T19:14:53;6.67;;;2.23;;
37483;SDS011;23337;52.212;9.926;2023-03-26T19:17:19;8.30;;;1.63;;
37483;SDS011;23337;52.212;9.926;2023-03-26T19:19:45;10.27;;;2.40;;
37483;SDS011;23337;52.212;9.926;2023-03-26T19:22:13;7.30;;;1.63;;
37483;SDS011;23337;52.212;9.926;2023-03-26T19:24:40;6.43;;;1.87;;
37483;SDS011;23337;52.212;9.926;2023-03-26T19:27:06;10.50;;;2.57;;
37483;SDS011;23337;52.212;9.926;2023-03-26T19:29:33;8.90;;;1.90;;
37483;SDS011;23337;52.212;9.926;2023-03-26T19:32:04;8.73;;;2.30;;
37483;SDS011;23337;52.212;9.926;2023-03-26T19:34:36;7.80;;;2.57;;
37483;SDS011;23337;52.212;9.926;2023-03-26T19:37:13;5.97;;;1.80;;
37483;SDS011;23337;52.212;9.926;2023-03-26T19:39:42;9.43;;;2.03;;
37483;SDS011;23337;52.212;9.926;2023-03-26T19:42:16;9.63;;;2.00;;
37483;SDS011;23337;52.212;9.926;2023-03-26T19:44:43;9.70;;;3.40;;
37483;SDS011;23337;52.212;9.926;2023-03-26T19:47:14;9.50;;;2.50;;
37483;SDS011;23337;52.212;9.926;2023-03-26T19:49:47;9.07;;;2.10;;
37483;SDS011;23337;52.212;9.926;2023-03-26T19:52:15;11.23;;;2.13;;
37483;SDS011;23337;52.212;9.926;2023-03-26T19:55:00;11.03;;;1.93;;
37483;SDS011;23337;52.212;9.926;2023-03-26T19:57:27;8.03;;;1.70;;
37483;SDS011;23337;52.212;9.926;2023-03-26T19:59:53;9.23;;;2.07;;
37483;SDS011;23337;52.212;9.926;2023-03-26T20:02:19;9.73;;;2.20;;
37483;SDS011;23337;52.212;9.926;2023-03-26T20:04:45;11.67;;;1.63;;
37483;SDS011;23337;52.212;9.926;2023-03-26T20:07:13;9.00;;;1.93;;
37483;SDS011;23337;52.212;9.926;2023-03-26T20:09:41;9.47;;;2.20;;
37483;SDS011;23337;52.212;9.926;2023-03-26T20:12:09;7.57;;;1.87;;
37483;SDS011;23337;52.212;9.926;2023-03-26T20:14:35;8.27;;;2.63;;
37483;SDS011;23337;52.212;9.926;2023-03-26T20:17:01;8.47;;;2.03;;
37483;SDS011;23337;52.212;9.926;2023-03-26T20:19:27;7.50;;;1.43;;
37483;SDS011;23337;52.212;9.926;2023-03-26T20:21:54;6.87;;;1.63;;
37483;SDS011;23337;52.212;9.926;2023-03-26T20:24:20;6.40;;;1.70;;